KMOP

Mount Pleasant Municipal Airport

Mount Pleasant, Michigan, USA
METAR KMOP 181615Z AUTO 00000KT 1/4SM -SN OVC003 01/00 A2985 RMK AO2 T00070001
Observed Flight Rules
Dec-18 @ 16:15 UTC (23 minutes ago) Instrument Flight Rules
Wind Visibility Clouds Conditions
Calm 1/4 miles
  • Overcast at 300' AGL
  • Light Snow
Temperatures Readings
Current 1°C / 34°F
Dewpoint 0°C / 32°F
Humidity 93%
Altimeter 29.85" Hg
Pressure 1011 hPa
Elevation 230
METAR KMOP 181615Z AUTO 00000KT 1/4SM -SN OVC003 01/00 A2985 RMK AO2 T00070001
Observed Flight Rules
Dec-18 @ 16:15 UTC
(23 minutes ago)
LIFR
Wind Visibility
Calm 1/4 miles
Clouds
  • Overcast at 300' AGL
Conditions
  • Light Snow
Temperature Dewpoint
1°C / 34°F 0°C / 32°F
Humidity Altimeter Pressure
93% 29.85" Hg 1011 hPa